createdAt,value
2019-01-23T00:01:19.667Z,2.73
2019-01-23T00:03:47.061Z,2.71
2019-01-23T00:06:14.460Z,2.70
2019-01-23T00:08:41.869Z,2.70
2019-01-23T00:11:09.292Z,2.73
2019-01-23T00:13:36.690Z,2.73
2019-01-23T00:16:04.114Z,2.70
2019-01-23T00:18:31.576Z,2.73
2019-01-23T00:20:59.007Z,2.79
2019-01-23T00:23:26.408Z,2.77
2019-01-23T00:25:53.888Z,2.65
2019-01-23T00:28:21.304Z,2.65
2019-01-23T00:30:48.747Z,2.61
2019-01-23T00:33:16.214Z,2.58
2019-01-23T00:35:43.670Z,2.65
2019-01-23T00:38:11.101Z,2.71
2019-01-23T00:40:38.557Z,2.75
2019-01-23T00:43:05.962Z,2.74
2019-01-23T00:45:33.392Z,2.71
2019-01-23T00:48:00.840Z,2.73
2019-01-23T00:50:28.796Z,2.72
2019-01-23T00:52:56.190Z,2.82
2019-01-23T00:55:23.624Z,2.94
2019-01-23T00:57:51.015Z,2.97
2019-01-23T01:00:22.361Z,2.99
2019-01-23T01:02:49.784Z,2.95
2019-01-23T01:05:17.630Z,2.90
2019-01-23T01:07:45.029Z,2.93
2019-01-23T01:10:12.459Z,2.91
2019-01-23T01:12:39.892Z,2.91
2019-01-23T01:15:13.127Z,2.91
2019-01-23T01:17:34.709Z,2.94
2019-01-23T01:20:02.174Z,3.03
2019-01-23T01:22:29.676Z,3.06
2019-01-23T01:24:57.084Z,3.04
2019-01-23T01:27:24.482Z,3.04
2019-01-23T01:29:51.904Z,3.08
2019-01-23T01:32:19.488Z,3.12
2019-01-23T01:34:46.941Z,3.07
2019-01-23T01:37:14.404Z,2.98
2019-01-23T01:39:41.810Z,2.96
2019-01-23T01:42:09.230Z,2.85
2019-01-23T01:44:36.641Z,2.89
2019-01-23T01:47:04.038Z,2.91
2019-01-23T01:49:31.454Z,2.90
2019-01-23T01:51:58.426Z,2.87
2019-01-23T01:54:25.888Z,2.84
2019-01-23T01:56:53.365Z,2.81
2019-01-23T01:59:20.786Z,2.73
2019-01-23T02:01:47.741Z,2.70
2019-01-23T02:04:15.151Z,2.73
2019-01-23T02:06:42.657Z,2.70
2019-01-23T02:09:10.078Z,2.72
2019-01-23T02:11:37.484Z,2.77
2019-01-23T02:14:04.898Z,2.74
2019-01-23T02:16:32.315Z,2.72
2019-01-23T02:18:59.731Z,2.64
2019-01-23T02:21:27.144Z,2.77
2019-01-23T02:23:54.547Z,2.80
2019-01-23T02:26:22.214Z,2.69
2019-01-23T02:28:49.664Z,2.65
2019-01-23T02:31:17.070Z,2.77
2019-01-23T02:33:44.619Z,2.81
2019-01-23T02:36:12.033Z,2.74
2019-01-23T02:38:39.457Z,2.74
2019-01-23T02:41:06.885Z,2.77
2019-01-23T02:43:34.348Z,2.75
2019-01-23T02:46:01.918Z,2.75
2019-01-23T02:48:29.465Z,2.86
2019-01-23T02:50:56.863Z,2.86
2019-01-23T02:53:24.346Z,2.80
2019-01-23T02:55:51.816Z,2.80
2019-01-23T02:58:19.270Z,2.85
2019-01-23T03:00:46.702Z,2.88
2019-01-23T03:03:14.380Z,2.92
2019-01-23T03:05:41.828Z,2.92
2019-01-23T03:08:09.232Z,2.94
2019-01-23T03:10:36.636Z,2.97
2019-01-23T03:13:04.054Z,2.96
2019-01-23T03:15:31.021Z,2.94
2019-01-23T03:17:58.518Z,2.98
2019-01-23T03:20:25.914Z,2.89
2019-01-23T03:22:53.470Z,2.88
2019-01-23T03:25:20.899Z,2.87
2019-01-23T03:27:48.327Z,2.89
2019-01-23T03:30:16.451Z,2.87
2019-01-23T03:32:43.881Z,2.80
2019-01-23T03:35:11.294Z,2.75
2019-01-23T03:37:38.721Z,2.75
2019-01-23T03:40:07.912Z,2.59
2019-01-23T03:42:35.173Z,2.41
2019-01-23T03:45:02.602Z,2.48
2019-01-23T03:47:30.052Z,2.58
2019-01-23T03:49:58.091Z,2.66
2019-01-23T03:52:25.496Z,2.61
2019-01-23T03:54:52.969Z,2.56
2019-01-23T03:57:20.400Z,2.54
2019-01-23T03:59:48.676Z,2.51
2019-01-23T04:02:16.100Z,2.51
2019-01-23T04:04:43.507Z,2.60
2019-01-23T04:07:10.973Z,2.62
2019-01-23T04:09:38.377Z,2.66
2019-01-23T04:12:05.850Z,2.68
2019-01-23T04:14:33.314Z,2.64
2019-01-23T04:17:00.776Z,2.64
2019-01-23T04:19:28.229Z,2.65
2019-01-23T04:21:55.635Z,2.64
2019-01-23T04:24:23.075Z,2.60
2019-01-23T04:26:50.943Z,2.59
2019-01-23T04:29:18.463Z,2.59
2019-01-23T04:31:45.920Z,2.53
2019-01-23T04:34:13.337Z,2.54
2019-01-23T04:36:40.734Z,2.58
2019-01-23T04:39:08.158Z,2.68
2019-01-23T04:41:35.644Z,2.70
2019-01-23T04:44:03.046Z,2.68
2019-01-23T04:46:30.480Z,2.74
2019-01-23T04:48:57.885Z,2.80
2019-01-23T04:51:40.221Z,2.85
2019-01-23T04:54:07.645Z,2.79
2019-01-23T04:56:35.046Z,2.76
2019-01-23T04:59:02.500Z,2.78
2019-01-23T05:01:29.951Z,2.81
2019-01-23T05:03:57.420Z,2.80
2019-01-23T05:06:24.842Z,2.74
2019-01-23T05:08:52.258Z,2.69
2019-01-23T05:11:19.695Z,2.64
2019-01-23T05:13:47.099Z,2.61
2019-01-23T05:16:14.604Z,2.54
2019-01-23T05:18:42.159Z,2.57
2019-01-23T05:21:09.590Z,2.63
2019-01-23T05:23:36.990Z,2.63
2019-01-23T05:26:04.422Z,2.62
2019-01-23T05:28:31.983Z,2.67
2019-01-23T05:30:59.375Z,2.71
2019-01-23T05:33:27.267Z,2.63
2019-01-23T05:35:54.685Z,2.60
2019-01-23T05:38:22.143Z,2.61
2019-01-23T05:40:49.542Z,2.59
2019-01-23T05:43:16.964Z,2.60
2019-01-23T05:45:44.447Z,2.60
2019-01-23T05:48:11.862Z,2.53
2019-01-23T05:50:39.358Z,2.53
2019-01-23T05:53:06.771Z,2.58
2019-01-23T05:55:34.184Z,2.53
2019-01-23T05:58:01.601Z,2.53
2019-01-23T06:00:29.053Z,2.57
2019-01-23T06:02:56.464Z,2.61
2019-01-23T06:05:23.877Z,2.68
2019-01-23T06:07:51.316Z,2.61
2019-01-23T06:10:18.755Z,2.53
2019-01-23T06:12:46.163Z,2.39
2019-01-23T06:15:13.698Z,2.42
2019-01-23T06:17:41.173Z,2.43
2019-01-23T06:20:09.462Z,2.37
2019-01-23T06:22:36.868Z,2.34
2019-01-23T06:25:04.365Z,2.30
2019-01-23T06:27:31.880Z,2.39
2019-01-23T06:29:59.329Z,2.50
2019-01-23T06:32:26.822Z,2.47
2019-01-23T06:34:54.455Z,2.46
2019-01-23T06:37:21.900Z,2.54
2019-01-23T06:39:49.399Z,2.68
2019-01-23T06:42:16.816Z,2.59
2019-01-23T06:44:44.219Z,2.56
2019-01-23T06:47:11.748Z,2.64
2019-01-23T06:49:39.246Z,2.67
2019-01-23T06:52:06.740Z,2.70
2019-01-23T06:54:34.199Z,2.74
2019-01-23T06:57:01.714Z,2.82
2019-01-23T06:59:29.150Z,2.85
2019-01-23T07:01:56.623Z,2.73
2019-01-23T07:04:24.079Z,2.70
2019-01-23T07:06:54.892Z,2.70
2019-01-23T07:09:22.977Z,2.71
2019-01-23T07:11:50.399Z,2.68
2019-01-23T07:14:18.154Z,2.69
2019-01-23T07:16:45.568Z,2.68
2019-01-23T07:19:13.068Z,2.67
2019-01-23T07:21:40.537Z,2.72
2019-01-23T07:24:08.130Z,2.81
2019-01-23T07:26:35.620Z,2.88
2019-01-23T07:29:03.887Z,2.95
2019-01-23T07:31:31.286Z,3.00
2019-01-23T07:33:58.980Z,2.99
2019-01-23T07:36:26.533Z,2.91
2019-01-23T07:38:54.089Z,2.81
2019-01-23T07:41:21.518Z,2.81
2019-01-23T07:43:48.936Z,2.84
2019-01-23T07:46:16.349Z,2.85
2019-01-23T07:48:43.746Z,2.87
2019-01-23T07:51:11.170Z,2.81
2019-01-23T07:53:38.594Z,2.76
2019-01-23T07:56:07.048Z,2.73
2019-01-23T07:58:34.469Z,2.72
2019-01-23T08:01:01.891Z,2.74
2019-01-23T08:03:29.367Z,2.86
2019-01-23T08:05:56.781Z,2.96
2019-01-23T08:08:24.193Z,2.98
2019-01-23T08:10:51.598Z,2.98
2019-01-23T08:13:19.179Z,3.00
2019-01-23T08:15:46.570Z,3.08
2019-01-23T08:18:14.013Z,3.17
2019-01-23T08:20:41.474Z,3.23
2019-01-23T08:23:08.930Z,3.23
2019-01-23T08:25:36.537Z,3.24
2019-01-23T08:28:03.945Z,3.24
2019-01-23T08:30:38.434Z,3.20
2019-01-23T08:32:58.968Z,3.17
2019-01-23T08:35:26.427Z,3.29
2019-01-23T08:37:53.881Z,3.41
2019-01-23T08:40:21.349Z,3.41
2019-01-23T08:42:48.803Z,3.28
2019-01-23T08:45:16.290Z,3.32
2019-01-23T08:47:43.750Z,3.18
2019-01-23T08:50:18.734Z,3.08
2019-01-23T08:52:46.199Z,3.09
2019-01-23T08:55:14.168Z,3.12
2019-01-23T08:57:41.603Z,3.12
2019-01-23T09:00:09.283Z,3.08
2019-01-23T09:02:37.564Z,3.06
2019-01-23T09:05:05.085Z,3.00
2019-01-23T09:07:32.508Z,2.86
2019-01-23T09:09:59.936Z,2.80
2019-01-23T09:12:27.360Z,2.76
2019-01-23T09:14:54.851Z,2.65
2019-01-23T09:17:22.278Z,2.48
2019-01-23T09:19:49.706Z,2.48
2019-01-23T09:22:17.135Z,2.49
2019-01-23T09:24:45.353Z,2.47
2019-01-23T09:27:12.771Z,2.50
2019-01-23T09:29:40.338Z,2.48
2019-01-23T09:32:13.810Z,2.46
2019-01-23T09:34:42.186Z,2.52
2019-01-23T09:37:10.445Z,2.76
2019-01-23T09:39:43.803Z,2.92
2019-01-23T09:42:12.896Z,3.00
2019-01-23T09:44:48.083Z,3.04
2019-01-23T09:47:18.343Z,3.12
2019-01-23T09:50:07.466Z,3.05
2019-01-23T09:52:57.585Z,3.06
2019-01-23T09:55:25.034Z,3.04
2019-01-23T09:57:52.461Z,3.13
2019-01-23T10:00:20.185Z,3.19
2019-01-23T10:02:47.584Z,3.26
2019-01-23T10:05:15.042Z,3.18
2019-01-23T10:07:42.543Z,3.23
2019-01-23T10:10:09.931Z,3.35
2019-01-23T10:12:37.492Z,3.46
2019-01-23T10:15:05.075Z,3.45
2019-01-23T10:17:32.581Z,3.31
2019-01-23T10:20:00.192Z,3.29
2019-01-23T10:22:27.631Z,3.29
2019-01-23T10:24:55.157Z,3.32
2019-01-23T10:27:22.650Z,3.25
2019-01-23T10:29:50.110Z,3.27
2019-01-23T10:32:17.585Z,3.24
2019-01-23T10:34:44.996Z,3.22
2019-01-23T10:37:12.551Z,3.27
2019-01-23T10:39:39.958Z,3.20
2019-01-23T10:42:07.584Z,3.13
2019-01-23T10:44:34.983Z,3.12
2019-01-23T10:47:02.424Z,3.10
2019-01-23T10:49:29.911Z,3.14
2019-01-23T10:51:57.405Z,3.13
2019-01-23T10:54:24.803Z,3.12
2019-01-23T10:56:52.216Z,3.09
2019-01-23T10:59:19.663Z,3.04
2019-01-23T11:01:47.099Z,3.07
2019-01-23T11:04:15.100Z,3.03
2019-01-23T11:06:42.649Z,3.02
2019-01-23T11:09:10.196Z,2.98
2019-01-23T11:11:38.348Z,2.86
2019-01-23T11:14:05.797Z,2.70
2019-01-23T11:16:34.141Z,2.70
2019-01-23T11:19:01.784Z,2.77
2019-01-23T11:21:29.202Z,2.80
2019-01-23T11:23:56.612Z,2.71
2019-01-23T11:26:24.042Z,2.73
2019-01-23T11:28:51.608Z,2.72
2019-01-23T11:31:20.510Z,2.80
2019-01-23T11:33:46.551Z,2.81
2019-01-23T11:36:14.024Z,2.73
2019-01-23T11:38:41.442Z,2.74
2019-01-23T11:41:09.783Z,2.82
2019-01-23T11:43:37.375Z,2.79
2019-01-23T11:46:05.506Z,2.80
2019-01-23T11:48:32.898Z,2.82
2019-01-23T11:51:00.382Z,2.86
2019-01-23T11:53:27.872Z,2.87
2019-01-23T11:55:55.384Z,2.89
2019-01-23T11:58:22.843Z,2.89
2019-01-23T12:00:50.684Z,2.91
2019-01-23T12:03:21.041Z,2.88
2019-01-23T12:05:45.642Z,2.89
2019-01-23T12:08:13.075Z,2.95
2019-01-23T12:10:40.616Z,2.85
2019-01-23T12:13:08.380Z,2.77
2019-01-23T12:15:40.780Z,2.78
2019-01-23T12:18:03.334Z,2.78
2019-01-23T12:20:30.855Z,2.85
2019-01-23T12:25:32.116Z,2.96
2019-01-23T12:27:59.560Z,3.03
2019-01-23T12:30:27.731Z,3.07
2019-01-23T12:32:55.200Z,3.05
2019-01-23T12:35:22.767Z,3.06
2019-01-23T12:37:50.204Z,3.00
2019-01-23T12:40:17.724Z,2.93
2019-01-23T12:42:45.240Z,2.95
2019-01-23T12:45:14.651Z,2.98
2019-01-23T12:47:42.100Z,2.97
2019-01-23T12:50:10.570Z,2.95
2019-01-23T12:52:37.991Z,2.99
2019-01-23T12:55:05.470Z,2.99
2019-01-23T12:57:32.895Z,2.90
2019-01-23T13:00:05.148Z,2.94
2019-01-23T13:02:27.838Z,2.93
2019-01-23T13:04:55.232Z,2.98
2019-01-23T13:07:23.181Z,2.92
2019-01-23T13:09:51.026Z,2.99
2019-01-23T13:12:18.426Z,3.05
2019-01-23T13:14:45.863Z,3.10
2019-01-23T13:17:13.962Z,3.11
2019-01-23T13:19:41.472Z,3.12
2019-01-23T13:22:08.888Z,3.09
2019-01-23T13:24:36.301Z,3.02
2019-01-23T13:27:03.718Z,3.01
2019-01-23T13:29:31.115Z,3.02
2019-01-23T13:31:58.600Z,2.94
2019-01-23T13:34:26.013Z,2.94
2019-01-23T13:36:53.504Z,3.06
2019-01-23T13:39:20.958Z,3.09
2019-01-23T13:41:48.446Z,3.13
2019-01-23T13:44:15.841Z,3.08
2019-01-23T13:46:43.285Z,3.00
2019-01-23T13:49:10.698Z,2.88
2019-01-23T13:51:38.116Z,2.81
2019-01-23T13:54:05.575Z,2.85
2019-01-23T13:56:33.930Z,2.81
2019-01-23T13:59:01.347Z,2.81
2019-01-23T14:01:28.762Z,2.75
2019-01-23T14:03:56.339Z,2.79
2019-01-23T14:06:24.474Z,3.00
2019-01-23T14:08:51.922Z,3.00
2019-01-23T14:11:19.327Z,2.92
2019-01-23T14:13:46.723Z,2.94
2019-01-23T14:16:14.122Z,2.99
2019-01-23T14:18:41.520Z,2.96
2019-01-23T14:21:09.171Z,2.96
2019-01-23T14:23:36.575Z,3.00
2019-01-23T14:26:04.111Z,3.00
2019-01-23T14:28:31.521Z,3.01
2019-01-23T14:30:58.953Z,3.09
2019-01-23T14:33:26.426Z,3.13
2019-01-23T14:35:53.839Z,3.12
2019-01-23T14:38:21.364Z,3.08
2019-01-23T14:40:48.780Z,3.12
2019-01-23T14:43:16.277Z,3.07
2019-01-23T14:45:43.706Z,3.11
2019-01-23T14:48:11.200Z,3.06
2019-01-23T14:50:38.610Z,3.04
2019-01-23T14:53:06.036Z,3.00
2019-01-23T14:55:33.688Z,2.94
2019-01-23T14:58:01.158Z,2.96
2019-01-23T15:00:29.420Z,2.91
2019-01-23T15:02:56.935Z,2.95
2019-01-23T15:05:24.341Z,3.01
2019-01-23T15:07:51.806Z,3.03
2019-01-23T15:10:20.018Z,2.98
2019-01-23T15:12:47.463Z,2.90
2019-01-23T15:15:14.899Z,2.86
2019-01-23T15:17:43.277Z,2.84
2019-01-23T15:20:12.219Z,2.86
2019-01-23T15:22:39.702Z,2.93
2019-01-23T15:25:06.727Z,2.96
2019-01-23T15:27:34.307Z,2.92
2019-01-23T15:30:01.950Z,2.93
2019-01-23T15:32:29.412Z,2.93
2019-01-23T15:34:56.904Z,3.01
2019-01-23T15:37:24.424Z,3.03
2019-01-23T15:39:51.955Z,3.05
2019-01-23T15:42:18.967Z,3.03
2019-01-23T15:44:46.355Z,2.95
2019-01-23T15:47:13.891Z,2.90
2019-01-23T15:49:41.308Z,2.91
2019-01-23T15:52:08.726Z,2.90
2019-01-23T15:54:36.142Z,2.90
2019-01-23T15:57:03.686Z,2.94
2019-01-23T15:59:31.172Z,2.91
2019-01-23T16:01:58.741Z,2.78
2019-01-23T16:04:26.150Z,2.66
2019-01-23T16:06:54.145Z,2.64
2019-01-23T16:09:21.592Z,2.69
2019-01-23T16:11:49.131Z,2.67
2019-01-23T16:14:16.623Z,2.65
2019-01-23T16:16:44.095Z,2.62
2019-01-23T16:19:11.637Z,2.62
2019-01-23T16:21:45.454Z,2.58
2019-01-23T16:24:07.107Z,2.61
2019-01-23T16:26:34.531Z,2.61
2019-01-23T16:29:02.091Z,2.60
2019-01-23T16:31:29.543Z,2.56
2019-01-23T16:33:56.982Z,2.48
2019-01-23T16:36:24.423Z,2.47
2019-01-23T16:38:52.778Z,2.52
2019-01-23T16:41:20.180Z,2.57
2019-01-23T16:43:47.699Z,2.64
2019-01-23T16:46:15.106Z,2.60
2019-01-23T16:48:42.543Z,2.56
2019-01-23T16:51:09.980Z,2.57
2019-01-23T16:53:37.410Z,2.64
2019-01-23T16:56:04.880Z,2.67
2019-01-23T16:58:32.285Z,2.64
2019-01-23T17:01:00.512Z,2.58
2019-01-23T17:03:28.885Z,2.64
2019-01-23T17:05:56.432Z,2.74
2019-01-23T17:08:23.860Z,2.70
2019-01-23T17:10:51.257Z,2.69
2019-01-23T17:13:18.765Z,2.69
2019-01-23T17:15:47.365Z,2.65
2019-01-23T17:18:14.787Z,2.56
2019-01-23T17:20:42.185Z,2.55
2019-01-23T17:23:09.630Z,2.60
2019-01-23T17:25:37.048Z,2.61
2019-01-23T17:28:04.647Z,2.68
2019-01-23T17:30:32.181Z,2.75
2019-01-23T17:32:59.764Z,2.76
2019-01-23T17:35:28.586Z,2.79
2019-01-23T17:37:55.968Z,2.83
2019-01-23T17:40:23.398Z,2.86
2019-01-23T17:42:50.427Z,2.85
2019-01-23T17:45:19.197Z,2.76
2019-01-23T17:47:46.352Z,2.67
2019-01-23T17:50:13.336Z,2.71
2019-01-23T17:52:40.349Z,2.76
2019-01-23T17:55:07.313Z,2.78
2019-01-23T17:57:34.354Z,2.71
2019-01-23T18:00:01.320Z,2.74
2019-01-23T18:02:29.094Z,2.84
2019-01-23T18:04:56.063Z,2.84
2019-01-23T18:07:23.048Z,2.82
2019-01-23T18:09:50.007Z,2.75
2019-01-23T18:12:17.045Z,2.77
2019-01-23T18:14:48.992Z,2.85
2019-01-23T18:17:11.102Z,2.90
2019-01-23T18:19:38.178Z,2.86
2019-01-23T18:22:06.492Z,2.80
2019-01-23T18:24:33.452Z,2.74
2019-01-23T18:27:00.447Z,2.77
2019-01-23T18:29:27.599Z,2.75
2019-01-23T18:31:55.415Z,2.76
2019-01-23T18:34:24.012Z,2.75
2019-01-23T18:37:07.639Z,2.74
2019-01-23T18:39:36.734Z,2.69
2019-01-23T18:42:14.538Z,2.70
2019-01-23T18:44:52.269Z,2.74
2019-01-23T18:47:26.033Z,2.76
2019-01-23T18:50:11.268Z,2.73
2019-01-23T18:52:38.254Z,2.74
2019-01-23T18:55:05.648Z,2.77
2019-01-23T18:57:32.632Z,2.84
2019-01-23T18:59:59.622Z,2.78
2019-01-23T19:02:26.562Z,2.79
2019-01-23T19:04:53.758Z,2.80
2019-01-23T19:07:20.788Z,2.83
2019-01-23T19:09:48.194Z,2.80
2019-01-23T19:12:15.390Z,2.76
2019-01-23T19:14:42.348Z,2.73
2019-01-23T19:17:09.334Z,2.70
2019-01-23T19:19:36.464Z,2.63
2019-01-23T19:22:03.559Z,2.66
2019-01-23T19:24:30.510Z,2.78
2019-01-23T19:26:57.523Z,2.82
2019-01-23T19:29:24.505Z,2.92
2019-01-23T19:31:51.465Z,2.95
2019-01-23T19:34:18.405Z,3.01
2019-01-23T19:36:45.592Z,3.05
2019-01-23T19:39:12.583Z,2.98
2019-01-23T19:41:40.046Z,2.90
2019-01-23T19:44:07.140Z,2.80
2019-01-23T19:46:34.143Z,2.68
2019-01-23T19:49:01.132Z,2.59
2019-01-23T19:51:28.267Z,2.56
2019-01-23T19:53:55.215Z,2.54
2019-01-23T19:56:22.193Z,2.52
2019-01-23T19:58:49.169Z,2.55
2019-01-23T20:01:16.188Z,2.61
2019-01-23T20:03:43.143Z,2.62
2019-01-23T20:06:10.099Z,2.60
2019-01-23T20:11:10.503Z,2.63
2019-01-23T20:13:37.520Z,2.67
2019-01-23T20:16:04.536Z,2.67
2019-01-23T20:18:31.572Z,2.71
2019-01-23T20:20:58.683Z,2.73
2019-01-23T20:23:25.651Z,2.71
2019-01-23T20:25:52.626Z,2.72
2019-01-23T20:28:19.647Z,2.74
2019-01-23T20:30:46.649Z,2.72
2019-01-23T20:33:13.823Z,2.66
2019-01-23T20:35:41.046Z,2.62
2019-01-23T20:38:07.980Z,2.61
2019-01-23T20:40:34.943Z,2.53
2019-01-23T20:43:02.057Z,2.55
2019-01-23T20:45:29.235Z,2.58
2019-01-23T20:47:56.201Z,2.61
2019-01-23T20:50:23.163Z,2.64
2019-01-23T20:52:50.368Z,2.62
2019-01-23T20:55:18.363Z,2.58
2019-01-23T20:57:45.605Z,2.48
2019-01-23T21:00:14.194Z,2.49
2019-01-23T21:02:41.388Z,2.54
2019-01-23T21:05:08.601Z,2.50
2019-01-23T21:07:35.602Z,2.47
2019-01-23T21:10:02.634Z,2.54
2019-01-23T21:12:29.935Z,2.55
2019-01-23T21:14:56.967Z,2.56
2019-01-23T21:17:24.042Z,2.59
2019-01-23T21:19:51.235Z,2.57
2019-01-23T21:22:18.270Z,2.59
2019-01-23T21:24:45.273Z,2.65
2019-01-23T21:27:12.307Z,2.56
2019-01-23T21:29:39.343Z,2.54
2019-01-23T21:32:06.436Z,2.53
2019-01-23T21:34:33.561Z,2.56
2019-01-23T21:37:00.507Z,2.58
2019-01-23T21:39:27.451Z,2.57
2019-01-23T21:41:54.386Z,2.51
2019-01-23T21:44:21.324Z,2.49
2019-01-23T21:46:48.405Z,2.46
2019-01-23T21:49:15.545Z,2.38
2019-01-23T21:51:42.683Z,2.35
2019-01-23T21:54:09.639Z,2.40
2019-01-23T21:56:36.631Z,2.42
2019-01-23T21:59:03.593Z,2.49
2019-01-23T22:01:30.582Z,2.46
2019-01-23T22:03:57.997Z,2.39
2019-01-23T22:06:25.063Z,2.40
2019-01-23T22:08:52.169Z,2.54
2019-01-23T22:11:19.142Z,2.61
2019-01-23T22:13:46.083Z,2.54
2019-01-23T22:16:13.051Z,2.44
2019-01-23T22:18:40.058Z,2.41
2019-01-23T22:21:07.022Z,2.44
2019-01-23T22:23:34.154Z,2.48
2019-01-23T22:26:01.295Z,2.52
2019-01-23T22:28:28.239Z,2.47
2019-01-23T22:30:55.203Z,2.48
2019-01-23T22:33:22.154Z,2.56
2019-01-23T22:35:49.115Z,2.50
2019-01-23T22:38:16.236Z,2.46
2019-01-23T22:40:43.204Z,2.43
2019-01-23T22:43:15.010Z,2.43
2019-01-23T22:45:37.116Z,2.48
2019-01-23T22:48:04.040Z,2.59
2019-01-23T22:50:31.025Z,2.63
2019-01-23T22:52:57.973Z,2.75
2019-01-23T22:55:25.099Z,2.85
2019-01-23T22:57:52.030Z,2.90
2019-01-23T23:00:19.977Z,2.96
2019-01-23T23:02:47.702Z,2.97
2019-01-23T23:05:14.980Z,3.00
2019-01-23T23:07:41.952Z,3.00
2019-01-23T23:10:08.923Z,2.99
2019-01-23T23:12:35.855Z,2.99
2019-01-23T23:15:02.857Z,3.00
2019-01-23T23:17:29.788Z,2.94
2019-01-23T23:19:56.756Z,2.93
2019-01-23T23:22:23.715Z,2.92
2019-01-23T23:24:50.686Z,2.87
2019-01-23T23:27:18.147Z,2.85
2019-01-23T23:29:45.165Z,2.88
2019-01-23T23:32:12.107Z,2.92
2019-01-23T23:34:39.069Z,2.90
2019-01-23T23:37:06.002Z,2.82
2019-01-23T23:39:33.040Z,2.79
2019-01-23T23:42:00.601Z,2.81
2019-01-23T23:44:27.554Z,2.90
2019-01-23T23:46:55.611Z,2.96
2019-01-23T23:49:21.543Z,3.03
2019-01-23T23:51:48.532Z,3.03
2019-01-23T23:54:15.474Z,3.05
2019-01-23T23:56:42.643Z,3.07
2019-01-23T23:59:09.622Z,3.01
